Kansas City, Kansas
Current Conditions -  °F | °C
As of 1:54 AM on Monday 26 Jan 2015 (Local Time) from KMKC Reporting Station
Clear Clear  
Wind Chill: -2°   Ceiling: Unl
Heat Index: -2°   Visibility: 10mi
Dew Point: -3°   Wind: 0mph
Humidity: 92%   Direction: NA
Pressure: 30.1"   Gusts: NA
Location:  39.11°N, 94.63°W
Report Text: KMKC 260754Z AUTO 00000KT 10SM CLR M02/M03 A3010 RMK AO2 SLP199 I1000 T10221033
Loading
Personal Weather Stations






























Interactive Weather Map New forecast layout! Learn more

10-Day Weather Forecast

Advertisements
Track Severe Weather on mobile